Time;durP1;ratioP1;P1;durP2;ratioP2;P2;SDS_P1;SDS_P2;PMS_P1;PMS_P2;Temp;Humidity;BMP_temperature;BMP_pressure;BME280_temperature;BME280_humidity;BME280_pressure;Samples;Min_cycle;Max_cycle;Signal;HPM_P1;HPM_P2
2023/12/19 00:01:38;;;;;;;12.60;6.05;;;;;;;11.25;49.51;102467.31;5072101;28;20029;-59
2023/12/19 00:04:03;;;;;;;14.57;4.85;;;;;;;11.24;49.64;102461.06;5072058;28;20047;-59
2023/12/19 00:06:29;;;;;;;9.25;4.57;;;;;;;11.22;49.87;102456.75;5073027;28;20500;-59
2023/12/19 00:08:55;;;;;;;13.68;5.88;;;;;;;11.18;50.18;102441.78;5073301;28;20422;-59
2023/12/19 00:11:21;;;;;;;12.00;6.40;;;;;;;11.21;50.29;102449.66;5073101;28;20043;-60
2023/12/19 00:13:46;;;;;;;9.52;4.47;;;;;;;11.18;49.67;102441.78;5071281;28;20055;-59
2023/12/19 00:16:12;;;;;;;15.82;6.30;;;;;;;11.11;50.59;102428.75;5069380;28;20090;-59
2023/12/19 00:18:37;;;;;;;12.88;5.00;;;;;;;11.11;49.92;102433.25;5061766;28;20420;-59
2023/12/19 00:21:03;;;;;;;10.70;5.15;;;;;;;11.15;50.61;102444.66;5051845;28;20037;-59
2023/12/19 00:23:30;;;;;;;14.88;5.38;;;;;;;11.14;50.11;102442.97;5051684;28;20037;-59
2023/12/19 00:25:57;;;;;;;12.43;5.65;;;;;;;11.13;50.12;102435.84;5051821;28;20136;-59
2023/12/19 00:28:22;;;;;;;10.93;5.57;;;;;;;11.16;50.23;102424.94;5051497;28;20459;-60
2023/12/19 00:30:48;;;;;;;10.93;4.50;;;;;;;11.14;50.14;102419.66;5052834;28;20037;-59
2023/12/19 00:33:13;;;;;;;12.32;5.13;;;;;;;11.10;50.45;102402.91;5051341;28;20067;-59
2023/12/19 00:35:39;;;;;;;12.48;5.05;;;;;;;11.17;50.73;102415.94;5034601;28;20036;-59
2023/12/19 00:38:04;;;;;;;11.70;5.07;;;;;;;11.18;50.29;102417.66;5034799;28;20053;-59
2023/12/19 00:40:29;;;;;;;15.30;6.47;;;;;;;11.20;50.57;102402.31;5051586;28;20037;-59
2023/12/19 00:42:55;;;;;;;15.48;6.03;;;;;;;11.25;50.28;102405.63;5052632;28;20439;-59
2023/12/19 00:45:20;;;;;;;15.15;5.90;;;;;;;11.26;50.11;102393.91;5051232;28;20095;-62
2023/12/19 00:47:45;;;;;;;13.50;5.20;;;;;;;11.23;50.61;102388.72;5052780;28;20066;-62
2023/12/19 00:50:15;;;;;;;10.10;5.38;;;;;;;11.26;49.89;102388.53;5051395;28;20452;-59
2023/12/19 00:52:41;;;;;;;13.38;5.75;;;;;;;11.24;50.94;102390.47;5052809;28;20401;-59
2023/12/19 00:55:06;;;;;;;11.90;5.35;;;;;;;11.26;50.20;102388.53;5052018;28;20453;-59
2023/12/19 00:57:32;;;;;;;14.18;5.53;;;;;;;11.23;50.61;102388.72;5056464;28;20135;-59
2023/12/19 01:04:06;;;;;;;14.13;6.00;;;;;;;11.24;50.60;102391.34;5076512;28;20051;-59
2023/12/19 01:06:32;;;;;;;18.05;6.15;;;;;;;11.25;50.62;102387.66;5076676;28;20036;-59
2023/12/19 01:08:57;;;;;;;12.27;5.88;;;;;;;11.26;51.01;102373.31;5076544;28;20514;-60
2023/12/19 01:11:23;;;;;;;16.20;6.82;;;;;;;11.24;50.95;102369.00;5058372;28;20040;-60
2023/12/19 01:13:48;;;;;;;15.23;6.50;;;;;;;11.27;50.22;102369.69;5074819;28;20040;-59
2023/12/19 01:16:16;;;;;;;14.95;5.95;;;;;;;11.27;50.62;102358.09;5076459;28;20032;-60
2023/12/19 01:18:41;;;;;;;17.98;5.57;;;;;;;11.29;49.92;102351.66;5075375;28;20455;-59
2023/12/19 01:21:07;;;;;;;15.05;6.72;;;;;;;11.31;51.33;102354.25;5057922;28;20052;-59
2023/12/19 01:23:32;;;;;;;14.07;6.45;;;;;;;11.30;50.82;102348.03;5074842;28;20085;-59
2023/12/19 01:25:58;;;;;;;11.55;6.00;;;;;;;11.32;50.45;102350.59;5058258;28;20032;-59
2023/12/19 01:28:23;;;;;;;13.73;6.45;;;;;;;11.33;51.33;102341.63;5076348;28;20028;-59
2023/12/19 01:30:48;;;;;;;12.52;5.65;;;;;;;11.30;51.01;102341.81;5076634;28;20119;-65
2023/12/19 01:33:14;;;;;;;15.50;6.20;;;;;;;11.27;51.36;102333.94;5076640;28;20413;-60
2023/12/19 01:35:39;;;;;;;17.27;7.20;;;;;;;11.32;51.44;102345.25;5076091;28;20090;-60
2023/12/19 01:38:05;;;;;;;12.10;5.95;;;;;;;11.32;51.09;102334.50;5076437;28;20071;-59
2023/12/19 01:40:31;;;;;;;15.25;5.97;;;;;;;11.32;51.27;102342.56;5074919;28;20451;-60
2023/12/19 01:42:57;;;;;;;16.92;7.00;;;;;;;11.35;51.19;102348.59;5057839;28;20066;-59
2023/12/19 01:45:27;;;;;;;14.60;7.10;;;;;;;11.40;51.14;102357.22;5076065;28;20036;-60
2023/12/19 01:47:53;;;;;;;10.98;5.90;;;;;;;11.44;50.68;102355.22;5074560;28;20040;-59
2023/12/19 01:50:18;;;;;;;12.40;5.60;;;;;;;11.47;51.01;102346.97;5074405;28;20038;-59
2023/12/19 01:52:51;;;;;;;15.68;7.45;;;;;;;11.46;50.66;102347.91;5074542;28;20036;-60
2023/12/19 01:55:17;;;;;;;13.35;6.22;;;;;;;11.52;51.50;102350.22;5074291;28;20036;-59
2023/12/19 01:57:42;;;;;;;14.63;6.20;;;;;;;11.56;51.64;102355.28;5074003;28;20040;-60
2023/12/19 02:00:08;;;;;;;12.63;5.95;;;;;;;11.60;51.57;102347.91;5057826;28;20111;-60
2023/12/19 02:02:34;;;;;;;13.20;5.63;;;;;;;11.64;51.46;102341.38;5074248;28;20032;-60
2023/12/19 02:04:59;;;;;;;11.15;5.90;;;;;;;11.65;51.29;102335.03;5075531;28;20025;-60
2023/12/19 02:07:25;;;;;;;12.70;5.63;;;;;;;11.68;51.21;102346.44;5073904;28;20040;-59
2023/12/19 02:09:53;;;;;;;11.07;6.00;;;;;;;11.69;51.47;102333.94;5057305;28;20412;-60
2023/12/19 02:12:20;;;;;;;12.65;5.90;;;;;;;11.69;51.41;102317.81;5075303;28;20035;-59
2023/12/19 02:14:45;;;;;;;11.50;5.15;;;;;;;11.70;50.56;102314.16;5057332;28;20040;-60
2023/12/19 02:17:11;;;;;;;12.68;4.93;;;;;;;11.72;51.38;102314.06;5074908;28;20132;-61
2023/12/19 02:20:02;;;;;;;13.95;5.47;;;;;;;11.74;51.08;102315.69;5073940;28;20025;-60
2023/12/19 02:22:30;;;;;;;15.05;6.50;;;;;;;11.74;50.65;102307.63;5070890;28;20036;-60
2023/12/19 02:24:56;;;;;;;13.60;5.60;;;;;;;11.72;51.63;102297.97;5074175;28;20111;-59
2023/12/19 02:27:24;;;;;;;13.57;5.72;;;;;;;11.77;51.80;102299.38;5074147;28;20103;-60
2023/12/19 02:29:49;;;;;;;10.85;4.88;;;;;;;11.77;51.83;102291.34;5075138;28;20055;-60
2023/12/19 02:32:14;;;;;;;14.55;5.70;;;;;;;11.78;51.56;102284.16;5057016;28;20064;-59
2023/12/19 02:34:42;;;;;;;15.25;5.75;;;;;;;11.79;50.80;102272.44;5074839;28;20029;-60
2023/12/19 02:37:07;;;;;;;7.68;4.30;;;;;;;11.81;50.98;102274.03;5075021;28;20078;-59
2023/12/19 02:39:32;;;;;;;13.25;5.50;;;;;;;11.80;50.65;102274.16;5073632;28;20033;-60
2023/12/19 02:41:58;;;;;;;14.43;5.20;;;;;;;11.80;51.34;102272.34;5075082;28;20036;-60
2023/12/19 02:44:23;;;;;;;13.93;5.97;;;;;;;11.77;50.94;102256.44;5077179;28;20045;-60
2023/12/19 02:46:49;;;;;;;8.35;4.55;;;;;;;11.83;51.75;102261.41;5076283;28;20032;-60
2023/12/19 02:49:15;;;;;;;10.93;5.05;;;;;;;11.86;51.92;102269.25;5078077;28;20079;-59
2023/12/19 02:51:40;;;;;;;9.30;3.90;;;;;;;11.80;51.21;102250.88;5077728;28;20112;-60
2023/12/19 02:54:05;;;;;;;9.75;4.75;;;;;;;11.87;50.95;102249.47;5078934;28;20507;-61
2023/12/19 02:56:34;;;;;;;8.85;4.50;;;;;;;11.89;50.55;102252.91;5078956;28;20408;-59
2023/12/19 02:59:01;;;;;;;9.40;5.10;;;;;;;11.90;51.75;102257.34;5058425;28;20488;-60
2023/12/19 03:01:26;;;;;;;11.65;4.97;;;;;;;11.92;51.08;102254.56;5074632;28;20382;-60
2023/12/19 03:03:51;;;;;;;9.02;4.82;;;;;;;11.93;51.05;102257.13;5074400;28;20043;-60
2023/12/19 03:06:17;;;;;;;9.50;4.75;;;;;;;11.93;51.30;102259.81;5073041;28;20028;-60
2023/12/19 03:08:46;;;;;;;9.15;4.53;;;;;;;11.93;50.50;102256.25;5056444;28;20032;-60
2023/12/19 03:11:15;;;;;;;13.25;4.60;;;;;;;11.89;51.22;102249.41;5056344;28;20431;-59
2023/12/19 03:13:40;;;;;;;10.07;4.72;;;;;;;11.90;51.02;102246.59;5072938;28;20040;-60
2023/12/19 03:16:06;;;;;;;8.68;4.72;;;;;;;11.89;52.11;102239.50;5046776;28;20424;-60
2023/12/19 03:18:31;;;;;;;8.73;4.43;;;;;;;11.86;51.45;102242.41;5073316;28;20475;-59
2023/12/19 03:20:57;;;;;;;12.88;5.22;;;;;;;11.87;51.62;102230.69;5074477;28;20527;-60
2023/12/19 03:23:23;;;;;;;9.35;4.38;;;;;;;11.93;50.91;102241.03;5075616;28;20071;-60
2023/12/19 03:25:49;;;;;;;9.65;4.13;;;;;;;11.93;51.39;102234.78;5075225;28;20032;-60
2023/12/19 03:28:14;;;;;;;8.18;4.20;;;;;;;11.96;51.65;102235.44;5056035;28;20402;-60
2023/12/19 03:30:40;;;;;;;8.65;4.53;;;;;;;11.95;51.04;102241.78;5072773;28;20029;-59
2023/12/19 03:33:05;;;;;;;10.75;5.13;;;;;;;11.92;51.01;102217.81;5073057;28;20487;-60
2023/12/19 03:35:31;;;;;;;9.80;4.70;;;;;;;11.97;51.01;102215.69;5073761;28;20115;-60
2023/12/19 03:37:56;;;;;;;6.70;4.25;;;;;;;11.95;51.48;102214.91;5072668;28;20033;-59
2023/12/19 03:40:21;;;;;;;7.70;4.70;;;;;;;11.96;52.03;102213.09;5073399;28;20036;-60
2023/12/19 03:42:47;;;;;;;7.55;4.35;;;;;;;11.97;51.01;102204.94;5073876;28;20036;-60
2023/12/19 03:45:13;;;;;;;9.68;4.53;;;;;;;11.99;51.33;102213.75;5073536;28;20033;-59
2023/12/19 03:47:39;;;;;;;9.95;4.65;;;;;;;12.01;52.40;102211.81;5072142;28;20495;-59
2023/12/19 03:50:05;;;;;;;9.25;4.63;;;;;;;12.03;51.09;102201.81;5073484;28;20082;-60
2023/12/19 03:52:31;;;;;;;7.10;3.58;;;;;;;12.03;51.52;102215.25;5055454;28;20024;-59
2023/12/19 03:54:56;;;;;;;10.65;4.07;;;;;;;11.99;52.03;102205.69;5073432;28;20047;-60
2023/12/19 03:57:21;;;;;;;10.65;3.60;;;;;;;12.05;51.84;102207.97;5071803;28;20093;-59
2023/12/19 03:59:47;;;;;;;10.38;4.68;;;;;;;12.04;50.89;102200.00;5073204;28;20028;-60
2023/12/19 04:02:13;;;;;;;7.57;3.58;;;;;;;12.04;50.89;102200.88;5072101;28;20036;-59
2023/12/19 04:04:38;;;;;;;9.10;4.38;;;;;;;12.04;51.31;102195.50;5072222;28;20495;-60
2023/12/19 04:07:04;;;;;;;9.20;4.28;;;;;;;12.04;51.28;102183.88;5072120;28;20111;-60
2023/12/19 04:09:30;;;;;;;10.90;4.65;;;;;;;11.98;51.81;102179.81;5055337;28;20043;-60
2023/12/19 04:11:55;;;;;;;8.25;4.93;;;;;;;11.97;51.61;102183.47;5071754;28;20451;-59
2023/12/19 04:14:23;;;;;;;7.90;4.15;;;;;;;12.00;51.57;102177.91;5054929;28;20039;-59
2023/12/19 04:16:49;;;;;;;8.60;4.72;;;;;;;12.00;52.15;102177.91;5054293;28;20055;-59
2023/12/19 04:19:14;;;;;;;9.35;3.78;;;;;;;11.98;51.41;102166.38;5055186;28;20032;-59
2023/12/19 04:21:41;;;;;;;8.90;4.28;;;;;;;12.00;51.89;102167.16;5071626;28;20036;-59
2023/12/19 04:24:06;;;;;;;7.32;4.43;;;;;;;11.97;52.20;102150.38;5054831;28;20408;-59
2023/12/19 04:26:32;;;;;;;6.72;3.70;;;;;;;12.00;52.55;102139.44;5072679;28;20037;-60
2023/12/19 04:28:57;;;;;;;6.28;3.35;;;;;;;12.00;52.29;102140.31;5071388;28;20037;-59
2023/12/19 04:31:22;;;;;;;6.82;4.25;;;;;;;11.97;51.51;102128.91;5070715;28;20112;-60
2023/12/19 04:33:48;;;;;;;7.00;3.58;;;;;;;11.99;52.51;102138.56;5071321;28;20040;-60
2023/12/19 04:36:13;;;;;;;9.75;3.75;;;;;;;11.98;51.83;102136.84;5054921;28;20040;-59
2023/12/19 04:38:39;;;;;;;6.60;3.88;;;;;;;11.99;52.27;102129.66;5054958;28;20037;-59
2023/12/19 04:41:04;;;;;;;9.40;3.85;;;;;;;12.04;51.86;102132.88;5071566;28;20071;-59
2023/12/19 04:43:30;;;;;;;7.82;3.78;;;;;;;12.06;51.96;102126.41;5072569;28;20039;-59
2023/12/19 04:45:55;;;;;;;11.07;4.47;;;;;;;12.10;52.29;102135.13;5072907;28;20094;-60
2023/12/19 04:48:21;;;;;;;11.52;3.95;;;;;;;12.10;51.31;102127.06;5071655;28;20127;-59
2023/12/19 04:50:46;;;;;;;7.93;3.40;;;;;;;12.09;52.87;102112.78;5071159;28;20078;-59
2023/12/19 04:53:11;;;;;;;9.32;4.32;;;;;;;12.15;52.26;102117.72;5071331;28;20488;-59
2023/12/19 04:55:37;;;;;;;9.20;4.65;;;;;;;12.14;52.63;102105.25;5071443;28;20052;-60
2023/12/19 04:58:02;;;;;;;11.48;3.90;;;;;;;12.13;51.54;102097.31;5071544;28;20036;-60
2023/12/19 05:00:28;;;;;;;7.85;3.78;;;;;;;12.16;51.72;102097.97;5070280;28;20465;-59
2023/12/19 05:02:53;;;;;;;6.07;3.53;;;;;;;12.20;51.83;102110.19;5072401;28;20039;-60
2023/12/19 05:05:22;;;;;;;6.40;3.60;;;;;;;12.14;52.08;102083.75;5071179;28;20036;-59
2023/12/19 05:07:48;;;;;;;7.35;3.60;;;;;;;12.16;51.86;102097.97;5071499;28;20560;-60
2023/12/19 05:10:13;;;;;;;8.85;4.50;;;;;;;12.19;52.72;102081.63;5071379;28;20123;-60
2023/12/19 05:12:39;;;;;;;7.95;4.15;;;;;;;12.19;51.50;102092.38;5071624;28;20068;-59
2023/12/19 05:15:04;;;;;;;7.10;4.20;;;;;;;12.20;52.96;102088.72;5071383;28;20029;-60
2023/12/19 05:17:30;;;;;;;8.10;4.18;;;;;;;12.20;51.94;102080.66;5072328;28;20035;-59
2023/12/19 05:19:56;;;;;;;7.10;3.90;;;;;;;12.24;51.87;102075.94;5054374;28;20033;-60
2023/12/19 05:22:21;;;;;;;7.15;4.13;;;;;;;12.24;52.90;102067.88;5071191;28;20040;-60
2023/12/19 05:24:48;;;;;;;5.90;3.83;;;;;;;12.27;52.32;102064.97;5072554;28;20119;-59
2023/12/19 05:27:14;;;;;;;9.98;3.67;;;;;;;12.28;51.73;102059.47;5071219;28;20519;-59
2023/12/19 05:29:39;;;;;;;11.52;3.90;;;;;;;12.28;52.05;102051.41;5070130;28;20040;-60
2023/12/19 05:32:06;;;;;;;8.35;3.88;;;;;;;12.28;53.19;102058.63;5071193;28;20056;-59
2023/12/19 05:34:33;;;;;;;6.32;3.47;;;;;;;12.30;53.00;102050.44;5071146;28;20492;-59
2023/12/19 05:37:00;;;;;;;6.07;3.50;;;;;;;12.30;52.03;102035.19;5071122;28;20039;-60
2023/12/19 05:39:25;;;;;;;5.63;3.78;;;;;;;12.37;52.19;102041.00;5072331;28;20060;-59
2023/12/19 05:41:55;;;;;;;9.60;3.70;;;;;;;12.40;52.05;102052.34;5073906;28;20092;-60
2023/12/19 05:44:21;;;;;;;5.57;3.17;;;;;;;12.44;53.23;102044.94;5057440;28;20126;-61
2023/12/19 05:46:47;;;;;;;5.47;3.50;;;;;;;12.43;52.80;102045.91;5075939;28;20481;-60
2023/12/19 05:49:12;;;;;;;6.97;3.42;;;;;;;12.47;52.54;102058.16;5075168;28;20110;-59
2023/12/19 05:51:38;;;;;;;8.50;4.15;;;;;;;12.45;51.75;102068.16;5075358;28;20127;-59
2023/12/19 05:54:05;;;;;;;7.53;3.33;;;;;;;12.52;53.13;102088.25;5075006;28;20435;-59
2023/12/19 05:56:30;;;;;;;5.97;3.47;;;;;;;12.54;52.54;102068.34;5074130;28;20044;-59
2023/12/19 05:58:56;;;;;;;8.13;3.35;;;;;;;12.58;52.20;102093.19;5075771;28;20037;-60
2023/12/19 06:01:21;;;;;;;6.47;3.78;;;;;;;12.61;52.07;102087.59;5074305;28;20484;-59
2023/12/19 06:03:47;;;;;;;4.65;3.35;;;;;;;12.65;52.97;102081.00;5057662;28;20040;-59
2023/12/19 06:06:16;;;;;;;8.82;3.67;;;;;;;12.65;51.80;102078.31;5074195;28;20086;-59
2023/12/19 06:08:44;;;;;;;9.20;4.20;;;;;;;12.71;52.37;102085.94;5075460;28;20543;-59
2023/12/19 06:11:11;;;;;;;8.77;3.17;;;;;;;12.70;52.87;102084.22;5074047;28;20032;-60
2023/12/19 06:13:36;;;;;;;8.25;3.65;;;;;;;12.74;51.94;102083.88;5072253;28;20040;-60
2023/12/19 06:16:03;;;;;;;9.35;3.53;;;;;;;12.72;52.30;102068.84;5074135;28;20082;-59
2023/12/19 06:18:29;;;;;;;13.15;3.90;;;;;;;12.66;51.78;102058.53;5074224;28;20049;-60
2023/12/19 06:20:55;;;;;;;4.93;2.88;;;;;;;12.74;52.08;102050.75;5067091;28;20064;-60
2023/12/19 06:23:20;;;;;;;11.48;3.35;;;;;;;12.74;52.00;102040.00;5075009;28;20067;-60
2023/12/19 06:25:45;;;;;;;6.03;3.90;;;;;;;12.77;52.99;102037.94;5057027;28;20028;-59
2023/12/19 06:28:11;;;;;;;9.48;3.13;;;;;;;12.76;52.99;102027.28;5057137;28;20115;-59
2023/12/19 06:30:37;;;;;;;5.88;2.88;;;;;;;12.75;52.46;102025.59;5073843;28;20029;-59
2023/12/19 06:33:03;;;;;;;6.00;3.55;;;;;;;12.77;51.82;102023.66;5075406;28;20435;-60
2023/12/19 06:35:30;;;;;;;4.53;2.88;;;;;;;12.78;52.50;102025.38;5075190;28;20456;-60
2023/12/19 06:37:56;;;;;;;7.25;3.33;;;;;;;12.78;51.87;102020.84;5073681;28;20085;-62
2023/12/19 06:40:23;;;;;;;11.93;4.43;;;;;;;12.77;52.29;102007.50;5075234;28;20041;-59
2023/12/19 06:42:48;;;;;;;5.47;3.17;;;;;;;12.75;52.93;101993.34;5073603;28;20033;-59
2023/12/19 06:45:14;;;;;;;8.70;3.10;;;;;;;12.75;52.72;101980.75;5073747;28;20044;-59
2023/12/19 06:47:39;;;;;;;6.93;3.70;;;;;;;12.76;53.00;101984.28;5074389;28;20159;-60
2023/12/19 06:50:05;;;;;;;7.88;3.10;;;;;;;12.77;52.45;101980.63;5076365;28;20576;-60
2023/12/19 06:52:30;;;;;;;6.88;3.97;;;;;;;12.77;52.47;101980.63;5075021;28;20112;-60
2023/12/19 06:54:56;;;;;;;9.15;3.83;;;;;;;12.78;53.21;101993.09;5075329;28;20082;-59
2023/12/19 06:57:21;;;;;;;8.32;3.35;;;;;;;12.77;52.37;102003.00;5075417;28;20048;-60
2023/12/19 06:59:47;;;;;;;11.30;3.83;;;;;;;12.79;51.73;102010.94;5076982;28;20557;-60
2023/12/19 07:02:13;;;;;;;6.30;3.92;;;;;;;12.80;52.82;102007.28;5075846;28;20044;-64
2023/12/19 07:04:38;;;;;;;10.70;3.05;;;;;;;12.81;51.88;102009.84;5073886;28;20420;-59
2023/12/19 07:07:04;;;;;;;6.00;3.17;;;;;;;12.84;52.66;101995.34;5074624;28;20033;-60
2023/12/19 07:09:29;;;;;;;7.82;3.55;;;;;;;12.84;51.95;101979.22;5055887;28;20059;-59
2023/12/19 07:11:55;;;;;;;14.73;3.65;;;;;;;12.90;52.51;101976.03;5074155;28;20043;-60
2023/12/19 07:14:20;;;;;;;5.85;2.85;;;;;;;12.93;51.75;101974.94;5074201;28;20047;-59
2023/12/19 07:16:45;;;;;;;7.35;2.83;;;;;;;12.91;51.63;101961.63;5056111;28;20090;-60
2023/12/19 07:19:12;;;;;;;6.50;2.80;;;;;;;12.90;52.67;101970.66;5055988;28;20480;-60
2023/12/19 07:21:37;;;;;;;9.55;3.13;;;;;;;12.86;52.93;101969.19;5072912;28;20032;-59
2023/12/19 07:24:03;;;;;;;5.60;2.85;;;;;;;12.90;52.88;101967.97;5072805;28;20116;-60
2023/12/19 07:26:30;;;;;;;6.65;3.00;;;;;;;12.91;52.65;101972.38;5072468;28;20036;-59
2023/12/19 07:28:57;;;;;;;6.97;3.50;;;;;;;12.95;52.35;101981.09;5072655;28;20048;-60
2023/12/19 07:31:27;;;;;;;6.22;3.30;;;;;;;12.96;51.76;101998.91;5073698;28;20037;-60
2023/12/19 07:33:59;;;;;;;6.85;2.65;;;;;;;12.99;51.98;101991.47;5073966;28;20032;-59
2023/12/19 07:36:26;;;;;;;15.18;3.30;;;;;;;13.02;52.35;101996.63;5072836;28;20020;-59
2023/12/19 07:38:52;;;;;;;3.80;2.50;;;;;;;13.04;53.02;101997.34;5072506;28;20613;-58
2023/12/19 07:41:18;;;;;;;5.95;3.10;;;;;;;13.07;51.66;101994.47;5055881;28;20028;-58
2023/12/19 07:43:43;;;;;;;5.68;3.05;;;;;;;13.07;51.90;101983.72;5072562;28;20029;-58
2023/12/19 07:46:10;;;;;;;5.38;2.95;;;;;;;13.08;52.75;101988.13;5073952;28;20443;-59
2023/12/19 07:48:36;;;;;;;5.82;2.53;;;;;;;13.12;51.88;101989.59;5073867;28;20121;-59
2023/12/19 07:51:02;;;;;;;5.95;2.55;;;;;;;13.15;51.69;101992.06;5075544;28;20056;-59
2023/12/19 07:53:28;;;;;;;8.32;2.95;;;;;;;13.19;53.02;101988.16;5075100;28;20067;-59
2023/12/19 07:55:53;;;;;;;7.28;2.92;;;;;;;13.21;53.00;101982.66;5057250;28;20033;-58
2023/12/19 07:58:19;;;;;;;5.70;2.85;;;;;;;13.21;52.15;101980.81;5056081;28;20047;-58
2023/12/19 08:00:47;;;;;;;3.85;2.35;;;;;;;13.28;52.46;101976.72;5073954;28;20091;-59
2023/12/19 08:03:14;;;;;;;3.97;2.33;;;;;;;13.27;52.70;101966.91;5074414;28;20042;-59
2023/12/19 08:05:45;;;;;;;8.48;2.85;;;;;;;13.30;52.15;101969.38;5071652;28;20029;-58
2023/12/19 08:08:11;;;;;;;6.30;2.65;;;;;;;13.34;51.99;101973.50;5071814;28;20124;-58
2023/12/19 08:10:36;;;;;;;3.30;2.10;;;;;;;13.35;52.94;101945.63;5073045;28;20111;-58
2023/12/19 08:13:01;;;;;;;7.18;2.42;;;;;;;13.38;51.44;101942.72;5071823;28;20289;-59
2023/12/19 08:15:27;;;;;;;6.57;2.42;;;;;;;13.41;52.89;101926.31;5071775;28;20480;-59
2023/12/19 08:17:52;;;;;;;5.75;2.05;;;;;;;13.43;53.02;101929.75;5071935;28;20082;-59
2023/12/19 08:20:17;;;;;;;10.63;2.53;;;;;;;13.47;51.51;101937.59;5054902;28;20094;-59
2023/12/19 08:22:43;;;;;;;5.63;2.15;;;;;;;13.49;51.94;101935.63;5073189;28;20412;-59
2023/12/19 08:25:08;;;;;;;5.05;2.65;;;;;;;13.53;52.72;101937.97;5072848;28;20085;-59
2023/12/19 08:27:35;;;;;;;4.43;2.13;;;;;;;13.55;52.83;101935.13;5072897;28;20107;-59
2023/12/19 08:30:04;;;;;;;3.13;2.13;;;;;;;13.58;52.12;101934.91;5071087;28;20029;-59
2023/12/19 08:32:30;;;;;;;3.38;2.25;;;;;;;13.58;52.06;101933.06;5072724;28;20036;-59
2023/12/19 08:34:56;;;;;;;3.10;1.88;;;;;;;13.61;51.52;101930.13;5073069;28;20040;-59
2023/12/19 08:37:22;;;;;;;8.40;2.15;;;;;;;13.62;52.00;101931.00;5072808;28;20041;-59
2023/12/19 08:39:54;;;;;;;4.25;2.30;;;;;;;13.67;52.68;101928.78;5072613;28;20381;-59
2023/12/19 08:42:19;;;;;;;4.45;2.42;;;;;;;13.67;51.54;101934.19;5071958;28;20053;-59
2023/12/19 08:44:44;;;;;;;3.90;1.80;;;;;;;13.68;52.72;101930.53;5072927;28;20039;-59
2023/12/19 08:47:10;;;;;;;3.92;1.60;;;;;;;13.70;51.37;101934.81;5072782;28;20119;-59
2023/12/19 08:49:35;;;;;;;3.50;2.38;;;;;;;13.71;52.39;101928.41;5072684;28;20085;-59
2023/12/19 08:52:00;;;;;;;4.38;1.98;;;;;;;13.72;52.78;101911.28;5072534;28;20162;-59
2023/12/19 08:54:26;;;;;;;7.32;2.63;;;;;;;13.72;52.26;101905.03;5072743;28;20403;-59
2023/12/19 08:56:51;;;;;;;2.35;1.77;;;;;;;13.76;52.57;101912.75;5071265;28;20028;-59
2023/12/19 08:59:17;;;;;;;21.65;2.67;;;;;;;13.77;51.82;101894.75;5072984;28;20040;-59
2023/12/19 09:01:42;;;;;;;4.78;2.63;;;;;;;13.77;52.46;101894.75;5072652;28;20036;-59
2023/12/19 09:04:08;;;;;;;3.00;1.75;;;;;;;13.76;51.68;101884.97;5071325;28;20045;-59
2023/12/19 09:06:33;;;;;;;9.07;2.00;;;;;;;13.75;51.58;101885.94;5072501;28;20033;-58
2023/12/19 09:08:58;;;;;;;6.10;2.10;;;;;;;13.78;52.67;101881.19;5072405;28;20044;-58
2023/12/19 09:11:24;;;;;;;3.38;1.90;;;;;;;13.79;51.30;101892.81;5070731;28;20036;-59
2023/12/19 09:13:49;;;;;;;4.20;2.08;;;;;;;13.81;51.60;101898.91;5071271;28;20029;-59
2023/12/19 09:16:15;;;;;;;3.95;1.80;;;;;;;13.79;52.32;101896.34;5073219;28;20032;-59
2023/12/19 09:18:40;;;;;;;6.88;1.73;;;;;;;13.79;51.58;101890.13;5076454;28;20028;-59
2023/12/19 09:21:06;;;;;;;2.50;1.50;;;;;;;13.77;52.08;101882.16;5074942;28;20399;-59
2023/12/19 09:23:31;;;;;;;6.28;2.03;;;;;;;13.81;51.23;101877.38;5075026;28;20036;-59
2023/12/19 09:25:56;;;;;;;4.10;2.35;;;;;;;13.82;51.76;101884.47;5076374;28;20032;-58
2023/12/19 09:28:23;;;;;;;2.17;1.60;;;;;;;13.83;50.93;101880.78;5058222;28;20549;-59
2023/12/19 09:30:49;;;;;;;5.45;2.28;;;;;;;13.80;51.76;101881.03;5076259;28;20037;-58
2023/12/19 09:33:14;;;;;;;4.57;2.00;;;;;;;13.81;51.78;101872.00;5074778;28;20499;-59
2023/12/19 09:35:41;;;;;;;3.97;1.73;;;;;;;13.87;52.11;101868.81;5074674;28;20400;-59
2023/12/19 09:38:06;;;;;;;9.20;2.55;;;;;;;13.89;51.07;101861.44;5076030;28;20031;-59
2023/12/19 09:40:33;;;;;;;7.18;1.98;;;;;;;13.89;51.89;101854.22;5057893;28;20128;-59
2023/12/19 09:42:59;;;;;;;3.45;1.73;;;;;;;13.94;51.83;101852.00;5074469;28;20036;-59
2023/12/19 09:45:24;;;;;;;4.07;2.03;;;;;;;13.98;51.80;101858.00;5058008;28;20033;-59
2023/12/19 09:47:59;;;;;;;2.42;1.95;;;;;;;13.98;50.96;101842.72;5057827;28;20032;-59
2023/12/19 09:50:26;;;;;;;4.45;2.15;;;;;;;13.99;51.44;101835.47;5074723;28;20024;-59
2023/12/19 09:52:59;;;;;;;5.72;1.83;;;;;;;14.00;51.79;101842.56;5057902;28;20028;-59
2023/12/19 09:55:31;;;;;;;2.97;1.50;;;;;;;14.04;51.45;101833.25;5075780;28;20082;-59
2023/12/19 09:57:57;;;;;;;5.70;1.80;;;;;;;14.05;51.77;101834.97;5074336;28;20112;-59
2023/12/19 10:00:25;;;;;;;5.63;2.25;;;;;;;14.03;51.68;101850.41;5075678;28;20123;-59
2023/12/19 10:02:52;;;;;;;7.15;1.88;;;;;;;14.02;51.16;101843.28;5074428;28;20036;-59
2023/12/19 10:05:17;;;;;;;4.75;1.77;;;;;;;14.06;51.47;101833.13;5075522;28;20044;-59
2023/12/19 10:07:43;;;;;;;5.05;1.70;;;;;;;14.09;51.82;101831.03;5075571;28;20492;-59
2023/12/19 10:10:11;;;;;;;6.78;1.92;;;;;;;14.15;51.16;101843.16;5057691;28;20025;-58
2023/12/19 10:12:47;;;;;;;5.75;2.42;;;;;;;14.19;52.25;101840.06;5073134;28;20086;-58
2023/12/19 10:15:13;;;;;;;2.42;1.73;;;;;;;14.20;51.43;101822.91;5074078;28;20507;-59
2023/12/19 10:17:40;;;;;;;4.45;2.17;;;;;;;14.25;52.20;101825.22;5073795;28;20031;-59
2023/12/19 10:20:10;;;;;;;6.72;2.17;;;;;;;14.26;51.23;101825.09;5074043;28;20098;-59
2023/12/19 10:22:37;;;;;;;4.32;1.98;;;;;;;14.27;50.47;101817.84;5074075;28;20045;-59
2023/12/19 10:25:03;;;;;;;6.28;2.13;;;;;;;14.29;51.28;101816.72;5074151;28;20036;-59
2023/12/19 10:27:29;;;;;;;6.07;2.17;;;;;;;14.29;52.25;101811.34;5074077;28;20024;-58
2023/12/19 10:30:14;;;;;;;3.35;1.65;;;;;;;14.27;50.76;101810.63;5057351;28;20081;-59
2023/12/19 10:32:40;;;;;;;3.70;2.25;;;;;;;14.26;52.38;101795.47;5056743;28;20037;-59
2023/12/19 10:35:06;;;;;;;4.45;2.28;;;;;;;14.24;51.43;101789.31;5074017;28;20044;-59
2023/12/19 10:37:33;;;;;;;11.68;3.30;;;;;;;14.22;51.36;101787.75;5073830;28;20532;-59
2023/12/19 10:40:14;;;;;;;8.93;3.03;;;;;;;14.20;51.11;101779.81;5073585;28;20044;-59
2023/12/19 10:42:39;;;;;;;6.78;3.17;;;;;;;14.15;51.59;101790.13;5074982;28;20024;-59
2023/12/19 10:45:05;;;;;;;6.82;2.75;;;;;;;14.15;51.54;101782.03;5075037;28;20039;-58
2023/12/19 10:47:31;;;;;;;10.50;3.22;;;;;;;14.15;52.03;101790.13;5074914;28;20108;-58
2023/12/19 10:49:56;;;;;;;9.93;3.90;;;;;;;14.09;52.35;101782.53;5073532;28;20062;-59
2023/12/19 10:52:28;;;;;;;5.05;1.98;;;;;;;14.06;51.03;101774.72;5056832;28;20025;-58
2023/12/19 10:55:06;;;;;;;5.85;2.22;;;;;;;14.01;52.25;101766.16;5073937;28;20147;-58
2023/12/19 10:57:34;;;;;;;5.05;2.38;;;;;;;14.01;52.03;101766.16;5059858;28;20047;-59
2023/12/19 11:00:09;;;;;;;5.32;2.67;;;;;;;14.00;52.00;101759.91;5076542;28;20090;-58
2023/12/19 11:03:06;;;;;;;6.57;2.30;;;;;;;13.98;52.75;101747.56;5059845;28;20036;-58
2023/12/19 11:05:38;;;;;;;5.53;2.30;;;;;;;13.95;52.07;101750.50;5077714;28;20373;-59
2023/12/19 11:08:17;;;;;;;6.43;3.03;;;;;;;13.91;50.89;101732.88;5076948;28;20090;-59
2023/12/19 11:11:11;;;;;;;4.20;2.35;;;;;;;13.94;52.39;101735.31;5058288;28;20025;-59
2023/12/19 11:13:37;;;;;;;4.07;3.10;;;;;;;13.94;52.02;101732.63;5073916;28;20036;-59
2023/12/19 11:16:18;;;;;;;6.90;3.08;;;;;;;13.91;51.29;101724.81;5056295;28;20033;-59
2023/12/19 11:18:55;;;;;;;8.18;3.50;;;;;;;13.90;51.40;101715.88;5055934;28;20404;-58
2023/12/19 11:21:26;;;;;;;7.07;3.00;;;;;;;13.90;52.61;101713.16;5072941;28;20388;-59
2023/12/19 11:24:03;;;;;;;6.57;3.45;;;;;;;13.91;51.89;101705.94;5074152;28;20036;-59